Time;durP1;ratioP1;P1;durP2;ratioP2;P2;SDS_P1;SDS_P2;PMS_P1;PMS_P2;Temp;Humidity;BMP_temperature;BMP_pressure;BME280_temperature;BME280_humidity;BME280_pressure;Samples;Min_cycle;Max_cycle;Signal;HPM_P1;HPM_P2
2022/07/03 00:00:34;;;;;;;1.08;0.80;;;20.50;90.30;;;;;;5011421;28;20075;-77
2022/07/03 00:02:59;;;;;;;1.15;0.90;;;20.50;90.40;;;;;;5011354;28;20159;-77
2022/07/03 00:05:25;;;;;;;2.15;0.90;;;20.40;90.40;;;;;;5010509;28;20079;-77
2022/07/03 00:07:50;;;;;;;1.38;0.90;;;20.50;90.40;;;;;;5012106;28;20025;-78
2022/07/03 00:10:16;;;;;;;1.42;0.88;;;20.40;90.40;;;;;;5011403;28;20025;-77
2022/07/03 00:12:42;;;;;;;1.25;0.90;;;20.40;90.50;;;;;;5028678;28;20036;-77
2022/07/03 00:15:08;;;;;;;1.20;0.80;;;20.40;90.40;;;;;;5010368;28;20030;-77
2022/07/03 00:17:33;;;;;;;1.90;0.90;;;20.40;90.40;;;;;;5029238;28;20041;-77
2022/07/03 00:19:59;;;;;;;1.52;1.00;;;20.40;90.50;;;;;;5028811;28;20032;-77
2022/07/03 00:22:26;;;;;;;1.50;1.00;;;20.40;90.40;;;;;;5009604;28;20025;-78
2022/07/03 00:24:53;;;;;;;0.80;0.70;;;20.40;90.40;;;;;;5011244;28;20049;-78
2022/07/03 00:27:21;;;;;;;1.08;0.90;;;20.40;90.40;;;;;;5011384;28;20079;-78
2022/07/03 00:29:48;;;;;;;1.73;0.70;;;20.40;90.40;;;;;;5011217;28;20049;-77
2022/07/03 00:32:21;;;;;;;1.95;0.90;;;20.50;90.40;;;;;;5010803;28;20036;-78
2022/07/03 00:34:49;;;;;;;1.17;0.70;;;20.50;90.30;;;;;;5028847;28;20083;-77
2022/07/03 00:37:14;;;;;;;0.70;0.70;;;20.50;90.30;;;;;;5028586;28;20079;-77
2022/07/03 00:39:42;;;;;;;0.80;0.70;;;20.60;90.40;;;;;;5010666;28;20022;-77
2022/07/03 00:42:09;;;;;;;1.38;0.80;;;20.50;90.20;;;;;;5010685;28;20122;-77
2022/07/03 00:44:46;;;;;;;0.85;0.80;;;20.50;90.20;;;;;;5010959;28;20029;-77
2022/07/03 00:47:13;;;;;;;1.45;0.95;;;20.50;90.30;;;;;;5010663;28;20120;-76
2022/07/03 00:49:40;;;;;;;1.33;0.80;;;20.50;90.30;;;;;;5011162;28;20034;-78
2022/07/03 00:52:09;;;;;;;1.10;0.70;;;20.50;90.40;;;;;;5010202;28;20080;-77
2022/07/03 00:54:35;;;;;;;1.60;1.00;;;20.50;90.40;;;;;;5009970;28;20489;-76
2022/07/03 00:57:02;;;;;;;0.98;0.80;;;20.40;90.40;;;;;;5010763;28;20060;-77
2022/07/03 00:59:28;;;;;;;1.42;0.80;;;20.40;90.40;;;;;;5028261;28;20099;-77
2022/07/03 01:02:03;;;;;;;1.58;0.95;;;20.40;90.40;;;;;;5009303;28;20112;-77
2022/07/03 01:04:44;;;;;;;1.73;1.17;;;20.40;90.50;;;;;;5004887;28;20025;-76
2022/07/03 01:07:25;;;;;;;1.50;0.80;;;20.40;90.50;;;;;;5014639;28;20029;-77
2022/07/03 01:09:51;;;;;;;1.40;1.00;;;20.40;90.50;;;;;;4998033;28;20117;-77
2022/07/03 01:12:44;;;;;;;1.67;0.90;;;20.40;90.50;;;;;;4990471;28;20124;-77
2022/07/03 01:15:36;;;;;;;1.73;1.00;;;20.40;90.50;;;;;;5007052;28;20042;-78
2022/07/03 01:18:14;;;;;;;1.92;0.73;;;20.40;90.50;;;;;;5008307;28;20057;-77
2022/07/03 01:20:43;;;;;;;1.67;1.08;;;20.40;90.40;;;;;;5009995;28;20025;-77
2022/07/03 01:23:28;;;;;;;1.50;0.90;;;20.40;90.40;;;;;;4997694;28;20038;-78
2022/07/03 01:25:55;;;;;;;1.48;0.80;;;20.50;90.40;;;;;;5008144;28;20029;-77
2022/07/03 01:28:23;;;;;;;1.25;1.00;;;20.50;90.30;;;;;;4990502;28;20037;-77
2022/07/03 01:30:52;;;;;;;1.55;0.90;;;20.50;90.30;;;;;;5027320;28;20026;-78
2022/07/03 01:33:26;;;;;;;1.25;0.80;;;20.50;90.30;;;;;;5027474;28;20100;-77
2022/07/03 01:36:01;;;;;;;1.13;0.80;;;20.50;90.30;;;;;;5010263;28;20029;-76
2022/07/03 01:38:29;;;;;;;1.00;0.90;;;20.40;90.30;;;;;;5006690;28;20076;-77
2022/07/03 01:40:56;;;;;;;1.23;0.90;;;20.40;90.30;;;;;;4997064;28;20033;-76
2022/07/03 01:43:30;;;;;;;1.65;1.00;;;20.50;90.40;;;;;;5003395;28;20028;-77
2022/07/03 01:45:58;;;;;;;1.40;0.90;;;20.40;90.40;;;;;;5003158;28;20087;-77
2022/07/03 01:48:25;;;;;;;1.40;0.80;;;20.40;90.50;;;;;;5009803;28;20025;-77
2022/07/03 01:50:51;;;;;;;1.00;0.90;;;20.40;90.50;;;;;;5010256;28;20038;-78
2022/07/03 01:53:17;;;;;;;0.82;0.80;;;20.40;90.50;;;;;;5020752;28;20022;-77
2022/07/03 01:55:43;;;;;;;2.05;1.00;;;20.40;90.50;;;;;;4998224;28;20064;-77
2022/07/03 01:58:10;;;;;;;1.40;0.90;;;20.40;90.50;;;;;;5022351;28;20504;-77
2022/07/03 02:01:06;;;;;;;1.00;0.80;;;20.40;90.50;;;;;;5027385;28;20029;-77
2022/07/03 02:03:35;;;;;;;2.05;1.00;;;20.40;90.50;;;;;;5025829;28;20022;-76
2022/07/03 02:06:10;;;;;;;0.80;0.77;;;20.40;90.60;;;;;;5009874;28;20032;-78
2022/07/03 02:09:01;;;;;;;1.10;0.80;;;20.40;90.50;;;;;;5027057;28;20049;-78
2022/07/03 02:11:27;;;;;;;;;;;20.40;90.50;;;;;;5015149;28;20091;-76
2022/07/03 02:14:18;;;;;;;1.15;0.70;;;20.40;90.40;;;;;;4998890;28;19924;-77
2022/07/03 02:16:53;;;;;;;1.77;0.93;;;20.40;90.40;;;;;;5015677;28;20522;-76
2022/07/03 02:19:25;;;;;;;1.10;0.90;;;20.50;90.40;;;;;;5024604;28;20432;-78
2022/07/03 02:21:54;;;;;;;1.00;0.80;;;20.50;90.30;;;;;;5009624;28;20024;-78
2022/07/03 02:24:20;;;;;;;0.80;0.80;;;20.50;90.30;;;;;;4993128;28;20097;-77
2022/07/03 02:26:53;;;;;;;1.35;0.90;;;20.40;90.20;;;;;;4991733;28;20442;-77
2022/07/03 02:29:24;;;;;;;0.70;0.70;;;20.40;90.30;;;;;;5012596;28;20025;-77
2022/07/03 02:31:58;;;;;;;1.13;0.80;;;20.40;90.30;;;;;;4989730;28;20037;-77
2022/07/03 02:34:27;;;;;;;0.93;0.70;;;20.40;90.40;;;;;;5003368;28;20033;-77
2022/07/03 02:37:09;;;;;;;0.82;0.82;;;20.40;90.50;;;;;;5027624;28;20091;-77
2022/07/03 02:39:51;;;;;;;0.93;0.80;;;20.40;90.50;;;;;;5013666;28;20021;-77
2022/07/03 02:42:49;;;;;;;1.40;0.90;;;20.40;90.50;;;;;;5020635;28;20026;-78
2022/07/03 02:45:17;;;;;;;1.65;0.95;;;20.40;90.50;;;;;;5023373;28;20068;-77
2022/07/03 02:48:25;;;;;;;2.83;0.90;;;20.40;90.60;;;;;;5013274;28;20037;-77
2022/07/03 02:50:56;;;;;;;1.02;0.90;;;20.40;90.60;;;;;;4974610;28;20073;-77
2022/07/03 02:53:29;;;;;;;1.48;0.88;;;20.40;90.50;;;;;;5010459;28;20065;-78
2022/07/03 02:56:07;;;;;;;1.38;0.93;;;20.40;90.60;;;;;;4993635;28;20612;-77
2022/07/03 02:58:41;;;;;;;1.45;0.75;;;20.40;90.60;;;;;;4993109;28;20026;-78
2022/07/03 03:01:15;;;;;;;1.27;0.80;;;20.40;90.50;;;;;;5021960;28;20026;-78
2022/07/03 03:03:49;;;;;;;1.10;0.80;;;20.40;90.50;;;;;;5010617;28;20204;-77
2022/07/03 03:06:20;;;;;;;1.35;0.85;;;20.40;90.50;;;;;;5017952;28;20021;-77
2022/07/03 03:08:52;;;;;;;2.05;1.00;;;20.40;90.40;;;;;;5012941;28;20033;-77
2022/07/03 03:11:32;;;;;;;1.10;0.80;;;20.40;90.30;;;;;;4999702;28;20046;-77
2022/07/03 03:14:02;;;;;;;2.00;0.80;;;20.40;90.30;;;;;;5011514;28;20053;-77
2022/07/03 03:16:28;;;;;;;1.48;0.80;;;20.40;90.30;;;;;;5011115;28;20115;-78
2022/07/03 03:18:53;;;;;;;1.08;0.90;;;20.40;90.30;;;;;;5002460;28;20489;-77
2022/07/03 03:21:23;;;;;;;1.60;0.80;;;20.40;90.30;;;;;;5001736;28;20025;-75
2022/07/03 03:23:51;;;;;;;0.80;0.80;;;20.40;90.40;;;;;;5002445;28;20025;-77
2022/07/03 03:26:24;;;;;;;0.93;0.80;;;20.40;90.40;;;;;;4992831;28;20034;-77
2022/07/03 03:28:51;;;;;;;1.02;0.80;;;20.40;90.40;;;;;;5010169;28;20683;-76
2022/07/03 03:31:18;;;;;;;0.80;0.80;;;20.40;90.60;;;;;;5010609;28;20104;-77
2022/07/03 03:33:46;;;;;;;1.10;0.90;;;20.40;90.60;;;;;;4992708;28;20026;-77
2022/07/03 03:36:14;;;;;;;0.90;0.80;;;20.40;90.60;;;;;;5015355;28;20061;-76
2022/07/03 03:38:40;;;;;;;1.10;0.90;;;20.30;90.50;;;;;;5002354;28;20029;-78
2022/07/03 03:41:07;;;;;;;0.80;0.70;;;20.40;90.60;;;;;;5029057;28;20025;-77
2022/07/03 03:43:33;;;;;;;0.95;0.90;;;20.30;90.60;;;;;;4992305;28;20886;-76
2022/07/03 03:45:59;;;;;;;1.42;0.98;;;20.30;90.60;;;;;;4992511;28;20128;-77
2022/07/03 03:48:26;;;;;;;0.85;0.80;;;20.30;90.60;;;;;;4998667;28;20112;-77
2022/07/03 03:50:52;;;;;;;1.15;0.80;;;20.40;90.50;;;;;;5007957;28;20041;-77
2022/07/03 03:53:19;;;;;;;0.85;0.80;;;20.30;90.50;;;;;;4991840;28;20034;-76
2022/07/03 03:56:07;;;;;;;1.35;0.90;;;20.40;90.50;;;;;;4992270;28;20108;-78
2022/07/03 03:58:35;;;;;;;0.88;0.70;;;20.40;90.50;;;;;;4992285;28;20022;-77
2022/07/03 04:01:03;;;;;;;1.40;0.95;;;20.40;90.40;;;;;;5017577;28;20563;-77
2022/07/03 04:03:29;;;;;;;0.80;0.80;;;20.40;90.30;;;;;;5011482;28;20038;-77
2022/07/03 04:05:56;;;;;;;0.98;0.90;;;20.40;90.30;;;;;;5009686;28;20447;-77
2022/07/03 04:08:23;;;;;;;1.63;1.10;;;20.40;90.30;;;;;;4992000;28;20080;-77
2022/07/03 04:10:49;;;;;;;0.98;0.88;;;20.40;90.30;;;;;;4992895;28;20025;-77
2022/07/03 04:13:16;;;;;;;0.80;0.80;;;20.40;90.30;;;;;;5009876;28;20036;-78
2022/07/03 04:15:42;;;;;;;1.00;0.80;;;20.40;90.30;;;;;;5036321;28;20075;-78
2022/07/03 04:18:07;;;;;;;1.20;0.90;;;20.40;90.40;;;;;;5011255;28;20022;-77
2022/07/03 04:20:33;;;;;;;1.13;1.00;;;20.40;90.50;;;;;;5029068;28;20033;-77
2022/07/03 04:22:59;;;;;;;1.42;0.88;;;20.40;90.50;;;;;;5028631;28;20659;-77
2022/07/03 04:25:25;;;;;;;1.10;0.95;;;20.40;90.60;;;;;;4995726;28;20026;-77
2022/07/03 04:27:50;;;;;;;1.55;0.90;;;20.30;90.60;;;;;;4991589;28;20026;-78
2022/07/03 04:30:16;;;;;;;1.88;1.20;;;20.30;90.60;;;;;;5009058;28;20029;-78
2022/07/03 04:32:41;;;;;;;2.30;1.05;;;20.40;90.60;;;;;;4991123;28;20025;-77
2022/07/03 04:35:07;;;;;;;1.40;0.90;;;20.40;90.60;;;;;;5020637;28;20035;-77
2022/07/03 04:37:33;;;;;;;1.20;1.00;;;20.30;90.60;;;;;;5010822;28;20036;-77
2022/07/03 04:39:58;;;;;;;1.30;0.82;;;20.40;90.60;;;;;;5028357;28;20033;-79
2022/07/03 04:42:24;;;;;;;1.10;0.90;;;20.30;90.60;;;;;;5028684;28;20039;-78
2022/07/03 04:44:49;;;;;;;0.80;0.80;;;20.40;90.50;;;;;;5011661;28;20027;-78
2022/07/03 04:47:15;;;;;;;0.80;0.80;;;20.40;90.50;;;;;;5011278;28;20376;-78
2022/07/03 04:49:41;;;;;;;1.45;0.85;;;20.40;90.40;;;;;;5011108;28;20025;-77
2022/07/03 04:52:07;;;;;;;1.40;0.98;;;20.40;90.40;;;;;;5028489;28;20017;-78
2022/07/03 04:54:33;;;;;;;0.82;0.80;;;20.40;90.30;;;;;;5010917;28;20852;-78
2022/07/03 04:56:58;;;;;;;1.60;1.00;;;20.40;90.30;;;;;;5011442;28;20075;-78
2022/07/03 04:59:24;;;;;;;1.45;0.90;;;20.40;90.30;;;;;;5003815;28;20018;-78
2022/07/03 05:01:50;;;;;;;0.85;0.80;;;20.40;90.20;;;;;;5008736;28;20022;-77
2022/07/03 05:04:16;;;;;;;1.13;0.93;;;20.40;90.30;;;;;;4991378;28;20025;-77
2022/07/03 05:06:42;;;;;;;1.40;1.00;;;20.40;90.30;;;;;;5008914;28;20072;-79
2022/07/03 05:09:07;;;;;;;1.38;1.00;;;20.40;90.40;;;;;;4991573;28;20832;-77
2022/07/03 05:11:33;;;;;;;1.58;0.95;;;20.40;90.50;;;;;;4990927;28;20121;-77
2022/07/03 05:13:58;;;;;;;0.82;0.80;;;20.40;90.40;;;;;;5008395;28;20041;-77
2022/07/03 05:16:24;;;;;;;1.33;0.93;;;20.40;90.50;;;;;;5003383;28;20025;-77
2022/07/03 05:18:49;;;;;;;1.33;1.00;;;20.40;90.50;;;;;;5011646;28;20492;-76
2022/07/03 05:21:15;;;;;;;1.05;0.88;;;20.40;90.40;;;;;;5008909;28;20029;-78
2022/07/03 05:23:40;;;;;;;1.35;0.98;;;20.40;90.50;;;;;;5028480;28;20108;-77
2022/07/03 05:26:06;;;;;;;1.08;0.82;;;20.40;90.50;;;;;;5006173;28;20092;-77
2022/07/03 05:28:31;;;;;;;0.80;0.80;;;20.40;90.40;;;;;;5011039;28;20037;-77
2022/07/03 05:30:57;;;;;;;1.10;0.90;;;20.30;90.40;;;;;;5026007;28;20064;-79
2022/07/03 05:33:22;;;;;;;0.80;0.80;;;20.40;90.50;;;;;;5027979;28;20499;-77
2022/07/03 05:35:48;;;;;;;1.10;1.00;;;20.40;90.40;;;;;;5014787;28;20078;-77
2022/07/03 05:39:31;;;;;;;1.00;0.90;;;20.40;90.40;;;;;;5030405;28;20115;-77
2022/07/03 05:40:59;;;;;;;1.73;1.00;;;20.40;90.30;;;;;;5036809;28;20041;-78
2022/07/03 05:43:24;;;;;;;1.30;1.00;;;20.40;90.30;;;;;;5029579;28;20017;-77
2022/07/03 05:45:49;;;;;;;1.15;0.90;;;20.50;90.20;;;;;;5028297;28;20123;-78
2022/07/03 05:48:15;;;;;;;1.15;1.00;;;20.50;90.10;;;;;;5010024;28;20083;-77
2022/07/03 05:50:40;;;;;;;1.05;0.98;;;20.50;90.10;;;;;;5029506;28;20025;-76
2022/07/03 05:53:06;;;;;;;1.10;1.00;;;20.60;90.20;;;;;;5010601;28;20038;-76
2022/07/03 05:55:31;;;;;;;1.00;0.90;;;20.50;90.20;;;;;;5027829;28;20361;-76
2022/07/03 05:57:57;;;;;;;1.00;0.90;;;20.50;90.20;;;;;;5009366;28;20040;-76
2022/07/03 06:00:22;;;;;;;1.42;1.00;;;20.50;90.20;;;;;;5045073;28;20057;-77
2022/07/03 06:02:48;;;;;;;1.25;0.98;;;20.40;90.10;;;;;;5010436;28;20026;-78
2022/07/03 06:05:13;;;;;;;0.85;0.80;;;20.40;90.20;;;;;;4990882;28;20029;-78
2022/07/03 06:07:39;;;;;;;1.63;1.10;;;20.40;90.20;;;;;;4990685;28;20061;-78
2022/07/03 06:10:05;;;;;;;1.50;0.98;;;20.40;90.20;;;;;;5022015;28;20101;-77
2022/07/03 06:12:30;;;;;;;1.25;0.98;;;20.40;90.10;;;;;;5011972;28;20516;-77
2022/07/03 06:14:56;;;;;;;1.63;1.00;;;20.40;90.10;;;;;;5014133;28;20033;-76
2022/07/03 06:17:21;;;;;;;0.82;0.82;;;20.40;90.10;;;;;;5013942;28;20059;-76
2022/07/03 06:19:47;;;;;;;1.02;0.93;;;20.40;90.10;;;;;;5013961;28;20036;-77
2022/07/03 06:22:12;;;;;;;1.10;1.00;;;20.40;90.10;;;;;;5013888;28;20604;-77
2022/07/03 06:24:38;;;;;;;0.95;0.85;;;20.40;90.10;;;;;;5031871;28;20025;-77
2022/07/03 06:27:04;;;;;;;1.35;0.82;;;20.50;90.10;;;;;;5023520;28;20030;-78
2022/07/03 06:29:29;;;;;;;1.85;0.80;;;20.50;90.10;;;;;;5025305;28;20029;-78
2022/07/03 06:31:55;;;;;;;1.00;0.90;;;20.50;90.10;;;;;;5020277;28;20636;-78
2022/07/03 06:34:20;;;;;;;0.90;0.80;;;20.50;90.00;;;;;;5012960;28;20041;-77
2022/07/03 06:36:46;;;;;;;1.30;0.90;;;20.60;89.90;;;;;;5013194;28;20048;-77
2022/07/03 06:39:11;;;;;;;0.90;0.70;;;20.60;89.80;;;;;;5003929;28;20539;-78
2022/07/03 06:41:37;;;;;;;0.75;0.75;;;20.60;89.70;;;;;;5000668;28;20582;-77
2022/07/03 06:44:02;;;;;;;1.00;0.90;;;20.60;89.60;;;;;;5013420;28;20107;-77
2022/07/03 06:46:28;;;;;;;1.67;1.08;;;20.60;89.70;;;;;;5013382;28;20514;-77
2022/07/03 06:48:53;;;;;;;1.10;1.00;;;20.60;89.70;;;;;;5025557;28;20042;-78
2022/07/03 06:51:19;;;;;;;1.02;0.80;;;20.60;89.70;;;;;;5011543;28;20038;-78
2022/07/03 06:53:44;;;;;;;1.02;0.90;;;20.60;89.80;;;;;;5009984;28;20038;-78
2022/07/03 06:56:10;;;;;;;1.25;0.90;;;20.60;89.70;;;;;;5011204;28;20113;-77
2022/07/03 06:58:35;;;;;;;1.13;1.00;;;20.60;89.80;;;;;;5017295;28;20022;-77
2022/07/03 07:01:01;;;;;;;1.23;1.00;;;20.60;89.80;;;;;;5029348;28;20030;-77
2022/07/03 07:03:26;;;;;;;1.35;1.00;;;20.60;89.70;;;;;;4994581;28;20108;-77
2022/07/03 07:05:52;;;;;;;1.02;0.85;;;20.60;89.70;;;;;;5030061;28;20033;-77
2022/07/03 07:08:17;;;;;;;1.73;0.93;;;20.60;89.50;;;;;;5030321;28;20109;-76
2022/07/03 07:10:43;;;;;;;2.15;1.05;;;20.60;89.40;;;;;;5012784;28;20017;-77
2022/07/03 07:13:08;;;;;;;1.17;0.90;;;20.50;89.40;;;;;;5009793;28;20037;-78
2022/07/03 07:15:34;;;;;;;1.42;1.02;;;20.60;89.50;;;;;;4998020;28;20026;-77
2022/07/03 07:17:59;;;;;;;1.33;0.90;;;20.60;89.50;;;;;;4992933;28;20041;-78
2022/07/03 07:20:25;;;;;;;1.00;0.90;;;20.70;89.50;;;;;;5026115;28;20079;-77
2022/07/03 07:22:50;;;;;;;1.95;1.00;;;20.70;89.30;;;;;;5029818;28;20025;-77
2022/07/03 07:25:16;;;;;;;1.52;1.00;;;20.70;89.10;;;;;;5010844;28;20849;-76
2022/07/03 07:27:41;;;;;;;2.15;1.00;;;20.80;88.90;;;;;;5010910;28;20112;-77
2022/07/03 07:30:07;;;;;;;2.35;0.98;;;20.80;88.70;;;;;;5009532;28;20043;-77
2022/07/03 07:32:33;;;;;;;1.42;1.00;;;20.80;88.80;;;;;;4992517;28;20065;-76
2022/07/03 07:34:58;;;;;;;2.17;1.00;;;20.80;88.70;;;;;;5014957;28;20646;-78
2022/07/03 07:37:24;;;;;;;0.80;0.80;;;20.80;88.90;;;;;;4992836;28;20032;-77
2022/07/03 07:39:49;;;;;;;1.20;1.02;;;20.80;88.80;;;;;;5010461;28;20485;-78
2022/07/03 07:42:16;;;;;;;1.52;1.02;;;20.80;88.80;;;;;;5009878;28;20033;-76
2022/07/03 07:44:41;;;;;;;1.40;1.00;;;20.80;89.00;;;;;;4992105;28;20068;-76
2022/07/03 07:47:07;;;;;;;1.25;1.00;;;20.80;88.80;;;;;;4992289;28;20030;-75
2022/07/03 07:49:32;;;;;;;1.50;1.10;;;20.80;88.70;;;;;;5028628;28;20052;-76
2022/07/03 07:51:58;;;;;;;1.00;0.90;;;20.80;89.00;;;;;;5011313;28;20029;-77
2022/07/03 07:54:24;;;;;;;1.73;1.20;;;20.80;88.90;;;;;;5011447;28;20084;-76
2022/07/03 07:56:49;;;;;;;2.08;1.30;;;20.80;89.00;;;;;;5011732;28;20037;-76
2022/07/03 07:59:15;;;;;;;1.33;0.95;;;20.80;89.10;;;;;;5001767;28;20033;-76
2022/07/03 08:07:09;;;;;;;1.85;1.00;;;20.80;89.10;;;;;;5028122;28;20111;-76
2022/07/03 08:09:34;;;;;;;1.65;1.20;;;20.90;89.10;;;;;;5001641;28;20075;-77
2022/07/03 08:11:59;;;;;;;2.45;1.10;;;20.90;88.80;;;;;;4998394;28;20025;-78
2022/07/03 08:14:25;;;;;;;1.33;1.00;;;20.90;88.60;;;;;;5029164;28;20039;-76
2022/07/03 08:16:51;;;;;;;1.25;1.10;;;21.00;88.40;;;;;;5009720;28;20022;-77
2022/07/03 08:19:16;;;;;;;1.90;1.10;;;21.10;88.20;;;;;;5009570;28;20029;-75
2022/07/03 08:21:42;;;;;;;1.95;1.30;;;21.10;88.00;;;;;;5017098;28;20034;-77
2022/07/03 08:24:08;;;;;;;1.58;1.10;;;21.10;87.90;;;;;;5011975;28;20021;-77
2022/07/03 08:26:33;;;;;;;1.63;1.10;;;21.10;87.80;;;;;;5029361;28;20381;-76
2022/07/03 08:28:59;;;;;;;1.17;1.08;;;21.10;87.90;;;;;;5010692;28;20029;-75
2022/07/03 08:31:24;;;;;;;1.55;1.10;;;21.10;87.80;;;;;;5009183;28;20112;-78
2022/07/03 08:33:50;;;;;;;1.20;1.10;;;21.10;87.90;;;;;;4993583;28;20030;-77
2022/07/03 08:36:15;;;;;;;1.45;1.10;;;21.10;87.90;;;;;;5022282;28;20042;-77
2022/07/03 08:38:41;;;;;;;1.30;1.10;;;21.10;87.80;;;;;;5025811;28;20021;-77
2022/07/03 08:41:07;;;;;;;1.90;1.10;;;21.10;87.80;;;;;;5010787;28;20026;-76
2022/07/03 08:43:34;;;;;;;1.95;1.13;;;21.10;87.90;;;;;;5026407;28;20028;-76
2022/07/03 08:46:00;;;;;;;1.20;1.10;;;21.10;87.80;;;;;;5017406;28;20113;-75
2022/07/03 08:48:28;;;;;;;2.22;1.10;;;21.10;87.80;;;;;;5024814;28;20052;-76
2022/07/03 08:50:54;;;;;;;1.35;1.10;;;21.10;87.90;;;;;;5010525;28;20029;-76
2022/07/03 08:53:19;;;;;;;1.58;1.10;;;21.20;87.90;;;;;;5009482;28;20667;-76
2022/07/03 08:55:47;;;;;;;1.27;1.00;;;21.10;87.80;;;;;;5028035;28;20091;-76
2022/07/03 08:58:14;;;;;;;1.65;1.20;;;21.20;87.90;;;;;;5005500;28;20029;-77
2022/07/03 09:00:40;;;;;;;1.27;1.08;;;21.20;87.80;;;;;;5008738;28;20053;-76
2022/07/03 09:03:10;;;;;;;1.20;1.10;;;21.20;87.70;;;;;;5006945;28;20814;-77
2022/07/03 09:05:35;;;;;;;1.23;1.10;;;21.30;87.60;;;;;;5010047;28;20033;-77
2022/07/03 09:08:02;;;;;;;1.58;1.00;;;21.30;87.40;;;;;;4993390;28;20621;-76
2022/07/03 09:10:28;;;;;;;1.20;0.95;;;21.40;87.30;;;;;;4990551;28;20079;-77
2022/07/03 09:12:55;;;;;;;1.23;1.10;;;21.30;87.00;;;;;;5002047;28;20091;-77
2022/07/03 09:15:21;;;;;;;1.75;1.08;;;21.30;87.00;;;;;;5009991;28;20033;-76
2022/07/03 09:18:04;;;;;;;1.17;1.00;;;21.30;87.00;;;;;;5010088;28;20059;-77
2022/07/03 09:20:32;;;;;;;1.20;1.10;;;21.30;87.10;;;;;;5010359;28;20049;-76
2022/07/03 09:23:09;;;;;;;1.10;1.00;;;21.30;87.00;;;;;;5027614;28;20028;-77
2022/07/03 09:25:35;;;;;;;1.77;1.10;;;21.30;87.10;;;;;;5028100;28;20053;-77
2022/07/03 09:28:00;;;;;;;1.67;1.20;;;21.30;87.00;;;;;;5027887;28;20064;-77
2022/07/03 09:30:26;;;;;;;1.75;1.17;;;21.30;87.00;;;;;;5009997;28;20052;-76
2022/07/03 09:32:52;;;;;;;1.77;1.10;;;21.30;87.10;;;;;;5027722;28;20026;-77
2022/07/03 09:35:23;;;;;;;2.15;1.38;;;21.30;87.20;;;;;;5019211;28;20037;-75
2022/07/03 09:37:54;;;;;;;2.53;1.20;;;21.30;87.30;;;;;;4988949;28;20040;-75
2022/07/03 09:40:21;;;;;;;1.05;1.00;;;21.30;87.20;;;;;;5019280;28;20080;-76
2022/07/03 09:43:05;;;;;;;2.95;1.30;;;21.40;87.80;;;;;;4992999;28;20401;-77
2022/07/03 09:45:53;;;;;;;1.40;1.10;;;21.30;87.10;;;;;;5010171;28;20022;-76
2022/07/03 09:48:39;;;;;;;1.10;1.00;;;21.40;87.20;;;;;;5006643;28;20408;-76
2022/07/03 09:51:25;;;;;;;1.42;1.10;;;21.40;87.20;;;;;;5014054;28;20033;-77
2022/07/03 09:53:57;;;;;;;1.73;1.10;;;21.40;87.10;;;;;;5006691;28;20030;-76
2022/07/03 09:56:36;;;;;;;1.70;1.20;;;21.40;87.00;;;;;;4995930;28;20037;-76
2022/07/03 09:59:10;;;;;;;1.60;1.00;;;21.50;86.80;;;;;;5026889;28;20425;-76
2022/07/03 10:01:44;;;;;;;2.17;1.02;;;21.50;86.70;;;;;;5004233;28;20121;-77
2022/07/03 10:04:18;;;;;;;2.22;1.10;;;21.50;86.50;;;;;;5005540;28;20034;-76
2022/07/03 10:06:55;;;;;;;1.05;0.95;;;21.50;86.50;;;;;;5012378;28;20540;-76
2022/07/03 10:09:31;;;;;;;1.70;1.02;;;21.50;86.40;;;;;;5005971;28;20037;-74
2022/07/03 10:11:58;;;;;;;1.73;1.00;;;21.50;86.40;;;;;;5023672;28;20060;-77
2022/07/03 10:14:26;;;;;;;1.85;1.00;;;21.50;86.50;;;;;;5000681;28;20048;-75
2022/07/03 10:16:52;;;;;;;1.83;1.10;;;21.50;86.70;;;;;;5007359;28;20026;-76
2022/07/03 10:19:25;;;;;;;1.60;1.10;;;21.50;86.70;;;;;;5021341;28;20025;-76
2022/07/03 10:21:53;;;;;;;2.38;1.20;;;21.50;86.80;;;;;;5006405;28;20025;-75
2022/07/03 10:24:21;;;;;;;2.08;1.00;;;21.50;86.80;;;;;;5012487;28;20058;-80
2022/07/03 10:26:47;;;;;;;1.80;1.08;;;21.50;86.90;;;;;;4989636;28;20030;-78
2022/07/03 10:29:15;;;;;;;1.88;1.00;;;21.50;86.90;;;;;;5002324;28;20431;-77
2022/07/03 10:31:44;;;;;;;1.52;1.00;;;21.50;86.80;;;;;;5010219;28;20025;-76
2022/07/03 10:34:12;;;;;;;2.25;1.00;;;21.50;86.90;;;;;;5007915;28;20105;-75
2022/07/03 10:36:38;;;;;;;1.83;1.10;;;21.50;86.90;;;;;;5006848;28;20417;-77
2022/07/03 10:39:06;;;;;;;1.77;1.00;;;21.50;86.90;;;;;;4998362;28;20039;-76
2022/07/03 10:47:37;;;;;;;1.90;1.00;;;21.50;87.00;;;;;;5011819;28;20040;-75
2022/07/03 10:50:06;;;;;;;2.55;1.10;;;21.50;86.80;;;;;;5005848;28;20040;-74
2022/07/03 10:52:32;;;;;;;1.00;0.90;;;21.60;86.70;;;;;;4996141;28;20500;-75
2022/07/03 10:54:57;;;;;;;2.67;1.20;;;21.50;86.60;;;;;;5023208;28;20033;-75
2022/07/03 10:57:23;;;;;;;1.33;1.00;;;21.60;86.70;;;;;;5021344;28;20029;-75
2022/07/03 10:59:48;;;;;;;3.53;1.42;;;21.60;86.50;;;;;;4997093;28;20026;-74
2022/07/03 11:02:37;;;;;;;1.88;0.90;;;21.50;86.70;;;;;;5018267;28;20083;-75
2022/07/03 11:05:03;;;;;;;1.20;1.00;;;21.50;86.90;;;;;;4999859;28;20618;-76
2022/07/03 11:07:33;;;;;;;1.85;1.00;;;21.50;86.90;;;;;;4998493;28;20092;-76
2022/07/03 11:10:14;;;;;;;1.65;0.90;;;21.50;87.00;;;;;;5002809;28;20033;-76
2022/07/03 11:13:09;;;;;;;1.60;1.00;;;21.50;87.10;;;;;;4996385;28;20052;-77
2022/07/03 11:15:52;;;;;;;2.33;1.02;;;21.50;87.20;;;;;;4992472;28;20041;-77
2022/07/03 11:18:30;;;;;;;2.15;1.17;;;21.50;87.20;;;;;;5009418;28;20382;-77
2022/07/03 11:21:01;;;;;;;1.30;0.90;;;21.40;87.20;;;;;;4991233;28;20044;-76
2022/07/03 11:23:27;;;;;;;1.90;1.20;;;21.50;87.30;;;;;;4990894;28;20026;-76
2022/07/03 11:25:59;;;;;;;1.92;1.00;;;21.50;87.30;;;;;;5009731;28;20036;-77
2022/07/03 11:28:34;;;;;;;1.63;1.00;;;21.40;87.40;;;;;;5009795;28;20036;-77
2022/07/03 11:31:13;;;;;;;1.42;0.90;;;21.40;87.60;;;;;;5012202;28;20587;-77
2022/07/03 11:33:43;;;;;;;1.63;1.10;;;21.40;87.50;;;;;;5030041;28;20026;-78
2022/07/03 11:36:27;;;;;;;1.65;1.10;;;21.40;87.50;;;;;;5030781;28;20028;-78
2022/07/03 11:38:55;;;;;;;1.55;1.00;;;21.40;87.40;;;;;;5031127;28;20094;-78
2022/07/03 11:41:22;;;;;;;0.90;0.90;;;21.50;87.40;;;;;;5013295;28;20029;-78
2022/07/03 11:43:49;;;;;;;1.92;1.00;;;21.50;87.20;;;;;;5030274;28;20491;-78
2022/07/03 11:46:20;;;;;;;1.00;0.90;;;21.50;87.10;;;;;;5029507;28;20125;-77
2022/07/03 11:48:46;;;;;;;1.75;1.00;;;21.50;87.10;;;;;;5011185;28;20033;-77
2022/07/03 11:51:11;;;;;;;2.25;1.08;;;21.50;87.20;;;;;;5011781;28;20024;-77
2022/07/03 11:53:39;;;;;;;1.23;1.00;;;21.40;87.20;;;;;;5003333;28;20028;-77
2022/07/03 11:56:09;;;;;;;1.05;0.95;;;21.50;87.40;;;;;;5003867;28;20033;-77
2022/07/03 11:58:44;;;;;;;2.22;1.10;;;21.40;87.30;;;;;;4999039;28;20103;-78
2022/07/03 12:01:21;;;;;;;1.65;0.93;;;21.40;87.30;;;;;;4995263;28;20030;-77
2022/07/03 12:03:47;;;;;;;1.10;1.00;;;21.40;87.40;;;;;;5019351;28;20021;-81
2022/07/03 12:06:13;;;;;;;1.58;1.10;;;21.40;87.30;;;;;;5010334;28;20033;-78
2022/07/03 12:08:42;;;;;;;1.02;0.80;;;21.40;87.40;;;;;;5011453;28;20107;-78
2022/07/03 12:11:10;;;;;;;2.42;1.10;;;21.40;87.50;;;;;;5028910;28;20031;-77
2022/07/03 12:13:35;;;;;;;3.25;1.00;;;21.40;87.50;;;;;;5029223;28;20083;-78
2022/07/03 12:16:09;;;;;;;3.58;1.27;;;21.40;87.60;;;;;;5012616;28;20065;-78
2022/07/03 12:18:53;;;;;;;3.17;1.00;;;21.40;87.60;;;;;;5011453;28;20568;-77
2022/07/03 12:21:20;;;;;;;3.45;1.10;;;21.40;87.40;;;;;;5013127;28;20445;-75
2022/07/03 12:23:55;;;;;;;5.03;1.20;;;21.40;87.40;;;;;;5010988;28;20116;-76
2022/07/03 12:26:32;;;;;;;3.38;1.10;;;21.40;87.30;;;;;;5011860;28;20038;-78
2022/07/03 12:29:05;;;;;;;3.15;1.02;;;21.40;87.10;;;;;;5011614;28;20506;-76
2022/07/03 12:31:32;;;;;;;2.38;0.98;;;21.40;87.10;;;;;;5011047;28;20041;-78
2022/07/03 12:33:59;;;;;;;3.63;1.20;;;21.40;87.10;;;;;;5028770;28;20029;-77
2022/07/03 12:36:25;;;;;;;3.17;1.13;;;21.40;87.00;;;;;;5006558;28;20056;-78
2022/07/03 12:38:56;;;;;;;4.13;1.10;;;21.40;87.10;;;;;;5006997;28;20113;-79
2022/07/03 12:41:23;;;;;;;3.35;1.00;;;21.40;87.80;;;;;;5011139;28;20207;-77
2022/07/03 12:43:50;;;;;;;2.60;0.93;;;21.40;87.40;;;;;;5011364;28;20083;-76
2022/07/03 12:46:19;;;;;;;3.58;1.10;;;21.40;87.50;;;;;;5029168;28;20536;-78
2022/07/03 12:48:46;;;;;;;2.55;1.17;;;21.30;87.60;;;;;;5028845;28;20488;-78
2022/07/03 12:51:11;;;;;;;3.50;1.13;;;21.30;87.80;;;;;;5006677;28;20032;-78
2022/07/03 12:53:36;;;;;;;3.03;1.10;;;21.30;87.80;;;;;;5006369;28;20424;-78
2022/07/03 12:56:03;;;;;;;2.65;1.20;;;21.30;87.90;;;;;;5006337;28;20072;-78
2022/07/03 13:01:30;;;;;;;3.15;1.20;;;21.30;88.10;;;;;;5027705;28;20083;-78
2022/07/03 13:03:56;;;;;;;2.85;1.10;;;21.30;88.20;;;;;;5002460;28;20036;-76
2022/07/03 13:06:23;;;;;;;4.85;1.10;;;21.20;88.30;;;;;;4998984;28;20034;-76
2022/07/03 13:08:59;;;;;;;1.95;1.05;;;21.30;88.40;;;;;;5018193;28;20034;-76
2022/07/03 13:11:33;;;;;;;2.70;1.13;;;21.20;88.30;;;;;;5000704;28;20156;-77